createdAt,value
2022-11-24T00:00:52.305Z,986.55
2022-11-24T00:01:52.325Z,986.54
2022-11-24T00:02:52.378Z,986.55
2022-11-24T00:03:52.259Z,986.58
2022-11-24T00:04:52.234Z,986.59
2022-11-24T00:05:52.237Z,986.60
2022-11-24T00:06:52.227Z,986.62
2022-11-24T00:07:52.276Z,986.66
2022-11-24T00:08:52.209Z,986.63
2022-11-24T00:09:52.200Z,986.64
2022-11-24T00:10:52.171Z,986.62
2022-11-24T00:11:52.177Z,986.62
2022-11-24T00:12:52.154Z,986.60
2022-11-24T00:13:52.135Z,986.60
2022-11-24T00:14:52.157Z,986.60
2022-11-24T00:15:52.113Z,986.58
2022-11-24T00:16:52.204Z,986.58
2022-11-24T00:17:52.088Z,986.58
2022-11-24T00:18:52.098Z,986.61
2022-11-24T00:19:52.074Z,986.65
2022-11-24T00:20:52.094Z,986.65
2022-11-24T00:21:52.099Z,986.66
2022-11-24T00:22:52.033Z,986.66
2022-11-24T00:23:52.023Z,986.70
2022-11-24T00:24:52.016Z,986.66
2022-11-24T00:25:52.007Z,986.78
2022-11-24T00:26:52.013Z,986.75
2022-11-24T00:27:51.990Z,986.73
2022-11-24T00:28:51.967Z,986.83
2022-11-24T00:29:51.964Z,986.81
2022-11-24T00:30:51.988Z,986.81
2022-11-24T00:31:51.972Z,986.83
2022-11-24T00:32:51.952Z,986.79
2022-11-24T00:33:51.921Z,986.78
2022-11-24T00:34:51.900Z,986.74
2022-11-24T00:35:51.884Z,986.77
2022-11-24T00:36:51.893Z,986.77
2022-11-24T00:37:51.902Z,986.77
2022-11-24T00:38:51.858Z,986.76
2022-11-24T00:39:51.838Z,986.75
2022-11-24T00:40:51.825Z,986.82
2022-11-24T00:41:51.845Z,986.83
2022-11-24T00:42:51.829Z,986.84
2022-11-24T00:43:51.802Z,986.82
2022-11-24T00:44:51.821Z,986.81
2022-11-24T00:45:51.917Z,986.84
2022-11-24T00:46:51.930Z,986.90
2022-11-24T00:47:51.759Z,986.92
2022-11-24T00:48:51.763Z,986.95
2022-11-24T00:49:51.735Z,986.93
2022-11-24T00:50:51.733Z,986.94
2022-11-24T00:51:51.714Z,986.97
2022-11-24T00:52:51.746Z,986.96
2022-11-24T00:53:51.705Z,986.91
2022-11-24T00:54:51.680Z,986.95
2022-11-24T00:55:51.686Z,986.98
2022-11-24T00:56:51.656Z,987.00
2022-11-24T00:57:51.674Z,986.97
2022-11-24T00:58:51.633Z,986.98
2022-11-24T00:59:51.623Z,987.05
2022-11-24T01:00:51.631Z,987.07
2022-11-24T01:01:51.664Z,987.08
2022-11-24T01:02:51.686Z,987.11
2022-11-24T01:03:51.575Z,987.08
2022-11-24T01:04:51.577Z,987.10
2022-11-24T01:05:51.555Z,987.14
2022-11-24T01:06:51.556Z,987.10
2022-11-24T01:07:51.649Z,987.19
2022-11-24T01:08:51.552Z,987.16
2022-11-24T01:09:51.536Z,987.20
2022-11-24T01:10:51.522Z,987.26
2022-11-24T01:11:51.515Z,987.28
2022-11-24T01:12:51.479Z,987.26
2022-11-24T01:13:51.463Z,987.30
2022-11-24T01:14:51.453Z,987.27
2022-11-24T01:15:51.487Z,987.32
2022-11-24T01:16:51.442Z,987.30
2022-11-24T01:17:51.428Z,987.26
2022-11-24T01:18:51.413Z,987.30
2022-11-24T01:19:51.399Z,987.28
2022-11-24T01:20:51.416Z,987.34
2022-11-24T01:21:51.371Z,987.31
2022-11-24T01:22:51.372Z,987.26
2022-11-24T01:23:51.382Z,987.27
2022-11-24T01:24:51.339Z,987.31
2022-11-24T01:25:51.422Z,987.34
2022-11-24T01:26:51.343Z,987.33
2022-11-24T01:27:51.324Z,987.36
2022-11-24T01:28:51.348Z,987.26
2022-11-24T01:29:51.341Z,987.35
2022-11-24T01:30:51.350Z,987.31
2022-11-24T01:31:51.282Z,987.35
2022-11-24T01:32:51.257Z,987.40
2022-11-24T01:33:51.247Z,987.39
2022-11-24T01:34:51.233Z,987.43
2022-11-24T01:35:51.215Z,987.42
2022-11-24T01:36:51.230Z,987.46
2022-11-24T01:37:51.203Z,987.43
2022-11-24T01:38:51.191Z,987.46
2022-11-24T01:39:51.178Z,987.44
2022-11-24T01:40:51.190Z,987.46
2022-11-24T01:41:51.193Z,987.47
2022-11-24T01:42:51.143Z,987.47
2022-11-24T01:43:51.127Z,987.42
2022-11-24T01:44:51.132Z,987.45
2022-11-24T01:45:51.192Z,987.45
2022-11-24T01:46:51.128Z,987.47
2022-11-24T01:47:51.130Z,987.40
2022-11-24T01:48:51.076Z,987.41
2022-11-24T01:49:51.072Z,987.42
2022-11-24T01:50:51.063Z,987.40
2022-11-24T01:51:51.050Z,987.44
2022-11-24T01:52:51.072Z,987.43
2022-11-24T01:53:51.018Z,987.45
2022-11-24T01:54:51.026Z,987.48
2022-11-24T01:55:51.049Z,987.50
2022-11-24T01:56:50.986Z,987.51
2022-11-24T01:57:51.013Z,987.53
2022-11-24T01:58:50.995Z,987.52
2022-11-24T01:59:50.945Z,987.51
2022-11-24T02:00:50.948Z,987.51
2022-11-24T02:01:50.977Z,987.53
2022-11-24T02:02:51.048Z,987.52
2022-11-24T02:03:50.924Z,987.55
2022-11-24T02:04:50.893Z,987.58
2022-11-24T02:05:50.889Z,987.52
2022-11-24T02:06:50.877Z,987.54
2022-11-24T02:07:50.967Z,987.57
2022-11-24T02:08:50.860Z,987.56
2022-11-24T02:09:50.842Z,987.57
2022-11-24T02:10:50.840Z,987.53
2022-11-24T02:11:50.824Z,987.57
2022-11-24T02:12:50.827Z,987.52
2022-11-24T02:13:50.811Z,987.55
2022-11-24T02:14:50.801Z,987.54
2022-11-24T02:15:50.874Z,987.54
2022-11-24T02:16:50.762Z,987.56
2022-11-24T02:17:50.772Z,987.56
2022-11-24T02:18:50.760Z,987.61
2022-11-24T02:19:50.779Z,987.59
2022-11-24T02:20:50.732Z,987.59
2022-11-24T02:21:50.709Z,987.60
2022-11-24T02:22:50.708Z,987.62
2022-11-24T02:23:50.738Z,987.59
2022-11-24T02:24:50.673Z,987.54
2022-11-24T02:25:50.670Z,987.55
2022-11-24T02:26:50.675Z,987.56
2022-11-24T02:27:53.838Z,987.61
2022-11-24T02:28:50.645Z,987.57
2022-11-24T02:29:50.634Z,987.58
2022-11-24T02:30:50.667Z,987.58
2022-11-24T02:31:50.616Z,987.57
2022-11-24T02:32:50.608Z,987.60
2022-11-24T02:33:50.573Z,987.56
2022-11-24T02:34:50.565Z,987.61
2022-11-24T02:35:50.575Z,987.57
2022-11-24T02:36:50.551Z,987.62
2022-11-24T02:37:50.544Z,987.62
2022-11-24T02:38:50.546Z,987.65
2022-11-24T02:39:50.506Z,987.67
2022-11-24T02:40:50.492Z,987.69
2022-11-24T02:41:50.494Z,987.67
2022-11-24T02:42:50.510Z,987.71
2022-11-24T02:43:50.525Z,987.69
2022-11-24T02:44:50.486Z,987.72
2022-11-24T02:45:50.520Z,987.75
2022-11-24T02:46:50.446Z,987.74
2022-11-24T02:47:50.524Z,987.79
2022-11-24T02:48:50.431Z,987.77
2022-11-24T02:49:50.464Z,987.73
2022-11-24T02:50:50.428Z,987.75
2022-11-24T02:51:50.381Z,987.79
2022-11-24T02:52:50.510Z,987.82
2022-11-24T02:53:50.401Z,987.81
2022-11-24T02:54:50.361Z,987.85
2022-11-24T02:55:50.369Z,987.85
2022-11-24T02:56:50.323Z,987.83
2022-11-24T02:57:50.318Z,987.83
2022-11-24T02:58:50.326Z,987.88
2022-11-24T02:59:50.293Z,987.87
2022-11-24T03:00:50.320Z,987.87
2022-11-24T03:01:50.351Z,987.92
2022-11-24T03:02:50.344Z,987.88
2022-11-24T03:03:50.247Z,987.90
2022-11-24T03:04:50.255Z,987.91
2022-11-24T03:05:50.226Z,987.93
2022-11-24T03:06:50.216Z,987.91
2022-11-24T03:07:50.266Z,987.95
2022-11-24T03:08:50.192Z,987.92
2022-11-24T03:09:50.199Z,987.96
2022-11-24T03:10:50.199Z,987.93
2022-11-24T03:11:50.174Z,987.96
2022-11-24T03:12:50.142Z,987.99
2022-11-24T03:13:50.178Z,987.95
2022-11-24T03:14:50.173Z,987.95
2022-11-24T03:15:50.207Z,987.89
2022-11-24T03:16:50.096Z,987.91
2022-11-24T03:17:50.115Z,987.92
2022-11-24T03:18:50.166Z,987.94
2022-11-24T03:19:50.065Z,988.00
2022-11-24T03:20:50.110Z,988.01
2022-11-24T03:21:50.044Z,988.00
2022-11-24T03:22:50.035Z,988.00
2022-11-24T03:23:50.057Z,988.05
2022-11-24T03:24:50.034Z,988.00
2022-11-24T03:25:50.018Z,987.97
2022-11-24T03:26:50.019Z,987.95
2022-11-24T03:27:50.049Z,988.03
2022-11-24T03:28:49.974Z,988.02
2022-11-24T03:29:49.965Z,988.01
2022-11-24T03:30:49.976Z,988.02
2022-11-24T03:31:49.979Z,988.10
2022-11-24T03:32:49.923Z,988.11
2022-11-24T03:33:49.965Z,988.09
2022-11-24T03:34:49.913Z,988.09
2022-11-24T03:35:49.914Z,988.10
2022-11-24T03:36:49.921Z,988.08
2022-11-24T03:37:49.921Z,988.12
2022-11-24T03:38:49.940Z,988.03
2022-11-24T03:39:49.871Z,988.07
2022-11-24T03:40:49.851Z,988.10
2022-11-24T03:41:49.824Z,988.08
2022-11-24T03:42:49.813Z,988.09
2022-11-24T03:43:49.840Z,988.10
2022-11-24T03:44:49.809Z,988.14
2022-11-24T03:45:49.839Z,988.10
2022-11-24T03:46:49.829Z,988.11
2022-11-24T03:47:49.756Z,988.12
2022-11-24T03:48:49.798Z,988.12
2022-11-24T03:49:49.768Z,988.15
2022-11-24T03:50:49.773Z,988.14
2022-11-24T03:51:49.734Z,988.13
2022-11-24T03:52:49.724Z,988.09
2022-11-24T03:53:49.692Z,988.12
2022-11-24T03:54:49.679Z,988.16
2022-11-24T03:55:49.690Z,988.14
2022-11-24T03:56:49.679Z,988.10
2022-11-24T03:57:49.668Z,988.18
2022-11-24T03:58:49.667Z,988.11
2022-11-24T03:59:49.634Z,988.21
2022-11-24T04:00:49.612Z,988.23
2022-11-24T04:01:49.655Z,988.25
2022-11-24T04:02:49.667Z,988.22
2022-11-24T04:03:49.583Z,988.21
2022-11-24T04:04:49.897Z,988.26
2022-11-24T04:05:49.570Z,988.24
2022-11-24T04:06:49.564Z,988.26
2022-11-24T04:07:49.604Z,988.27
2022-11-24T04:08:49.525Z,988.27
2022-11-24T04:09:49.522Z,988.32
2022-11-24T04:10:49.501Z,988.36
2022-11-24T04:11:49.535Z,988.36
2022-11-24T04:12:49.477Z,988.31
2022-11-24T04:13:49.473Z,988.34
2022-11-24T04:14:49.463Z,988.37
2022-11-24T04:15:49.504Z,988.33
2022-11-24T04:16:49.433Z,988.34
2022-11-24T04:17:49.448Z,988.40
2022-11-24T04:18:49.415Z,988.37
2022-11-24T04:19:49.411Z,988.37
2022-11-24T04:20:49.408Z,988.39
2022-11-24T04:21:49.389Z,988.40
2022-11-24T04:22:49.397Z,988.39
2022-11-24T04:23:49.355Z,988.43
2022-11-24T04:24:49.350Z,988.36
2022-11-24T04:25:49.357Z,988.38
2022-11-24T04:26:49.330Z,988.39
2022-11-24T04:27:49.311Z,988.37
2022-11-24T04:28:49.323Z,988.42
2022-11-24T04:29:49.288Z,988.39
2022-11-24T04:30:49.319Z,988.42
2022-11-24T04:31:49.360Z,988.40
2022-11-24T04:32:49.278Z,988.42
2022-11-24T04:33:49.256Z,988.40
2022-11-24T04:34:49.232Z,988.41
2022-11-24T04:35:49.259Z,988.41
2022-11-24T04:36:49.208Z,988.39
2022-11-24T04:37:49.223Z,988.43
2022-11-24T04:39:22.942Z,988.43
2022-11-24T04:39:50.388Z,988.47
2022-11-24T04:40:49.188Z,988.49
2022-11-24T04:41:49.176Z,988.49
2022-11-24T04:42:49.212Z,988.48
2022-11-24T04:43:49.157Z,988.46
2022-11-24T04:44:49.122Z,988.50
2022-11-24T04:45:49.113Z,988.47
2022-11-24T04:46:49.145Z,988.50
2022-11-24T04:47:49.128Z,988.48
2022-11-24T04:48:49.112Z,988.50
2022-11-24T04:49:49.086Z,988.55
2022-11-24T04:50:49.091Z,988.55
2022-11-24T04:51:49.046Z,988.57
2022-11-24T04:52:49.077Z,988.53
2022-11-24T04:53:49.055Z,988.52
2022-11-24T04:54:49.028Z,988.56
2022-11-24T04:55:49.040Z,988.55
2022-11-24T04:56:48.990Z,988.58
2022-11-24T04:57:48.993Z,988.60
2022-11-24T04:58:48.973Z,988.60
2022-11-24T04:59:48.959Z,988.61
2022-11-24T05:00:48.955Z,988.70
2022-11-24T05:01:48.973Z,988.68
2022-11-24T05:02:48.917Z,988.71
2022-11-24T05:03:48.956Z,988.74
2022-11-24T05:04:48.988Z,988.72
2022-11-24T05:05:48.886Z,988.77
2022-11-24T05:06:48.896Z,988.79
2022-11-24T05:07:48.957Z,988.83
2022-11-24T05:08:48.850Z,988.87
2022-11-24T05:09:59.424Z,988.85
2022-11-24T05:10:49.846Z,988.91
2022-11-24T05:11:48.825Z,988.91
2022-11-24T05:12:51.406Z,988.91
2022-11-24T05:13:48.834Z,988.92
2022-11-24T05:14:48.807Z,988.94
2022-11-24T05:15:48.846Z,988.91
2022-11-24T05:16:48.768Z,988.95
2022-11-24T05:17:48.764Z,988.92
2022-11-24T05:18:48.771Z,988.99
2022-11-24T05:19:48.735Z,988.97
2022-11-24T05:20:48.840Z,988.90
2022-11-24T05:21:48.733Z,988.89
2022-11-24T05:22:48.699Z,988.93
2022-11-24T05:23:48.720Z,988.92
2022-11-24T05:24:48.703Z,988.96
2022-11-24T05:25:48.709Z,988.97
2022-11-24T05:26:48.687Z,988.99
2022-11-24T05:27:48.663Z,988.99
2022-11-24T05:28:48.638Z,989.02
2022-11-24T05:29:48.642Z,988.98
2022-11-24T05:30:48.617Z,988.98
2022-11-24T05:31:48.710Z,989.03
2022-11-24T05:32:48.586Z,989.03
2022-11-24T05:33:48.600Z,989.09
2022-11-24T05:34:48.577Z,989.09
2022-11-24T05:35:48.566Z,989.13
2022-11-24T05:36:48.539Z,989.10
2022-11-24T05:37:48.580Z,989.10
2022-11-24T05:38:48.527Z,989.10
2022-11-24T05:39:48.535Z,989.14
2022-11-24T05:40:48.502Z,989.15
2022-11-24T05:41:48.549Z,989.15
2022-11-24T05:42:48.529Z,989.17
2022-11-24T05:43:48.556Z,989.23
2022-11-24T05:44:48.469Z,989.29
2022-11-24T05:45:48.476Z,989.27
2022-11-24T05:46:48.527Z,989.24
2022-11-24T05:47:48.456Z,989.28
2022-11-24T05:48:48.571Z,989.29
2022-11-24T05:49:48.439Z,989.27
2022-11-24T05:50:48.385Z,989.26
2022-11-24T05:51:48.488Z,989.27
2022-11-24T05:52:48.386Z,989.29
2022-11-24T05:53:48.359Z,989.23
2022-11-24T05:54:48.386Z,989.21
2022-11-24T05:55:48.355Z,989.19
2022-11-24T05:56:48.347Z,989.19
2022-11-24T05:57:48.328Z,989.20
2022-11-24T05:58:48.324Z,989.19
2022-11-24T05:59:48.329Z,989.20
2022-11-24T06:00:48.277Z,989.20
2022-11-24T06:01:48.606Z,989.18
2022-11-24T06:02:48.627Z,989.20
2022-11-24T06:03:48.253Z,989.17
2022-11-24T06:04:48.249Z,989.21
2022-11-24T06:05:49.191Z,989.20
2022-11-24T06:06:48.267Z,989.22
2022-11-24T06:07:48.264Z,989.28
2022-11-24T06:08:48.242Z,989.24
2022-11-24T06:09:48.511Z,989.23
2022-11-24T06:10:48.162Z,989.28
2022-11-24T06:11:48.217Z,989.24
2022-11-24T06:12:48.192Z,989.30
2022-11-24T06:13:48.248Z,989.27
2022-11-24T06:14:48.135Z,989.29
2022-11-24T06:15:48.113Z,989.34
2022-11-24T06:16:48.172Z,989.35
2022-11-24T06:17:48.138Z,989.39
2022-11-24T06:18:48.116Z,989.43
2022-11-24T06:19:48.078Z,989.48
2022-11-24T06:21:09.151Z,989.45
2022-11-24T06:21:49.067Z,989.45
2022-11-24T06:22:48.041Z,989.44
2022-11-24T06:23:48.019Z,989.43
2022-11-24T06:24:48.078Z,989.47
2022-11-24T06:25:51.522Z,989.48
2022-11-24T06:26:48.035Z,989.47
2022-11-24T06:27:48.012Z,989.52
2022-11-24T06:28:48.046Z,989.53
2022-11-24T06:29:47.972Z,989.55
2022-11-24T06:30:47.984Z,989.52
2022-11-24T06:31:48.063Z,989.49
2022-11-24T06:32:50.028Z,989.54
2022-11-24T06:33:47.948Z,989.56
2022-11-24T06:34:47.957Z,989.53
2022-11-24T06:35:47.896Z,989.59
2022-11-24T06:36:47.881Z,989.50
2022-11-24T06:37:47.868Z,989.53
2022-11-24T06:38:47.892Z,989.51
2022-11-24T06:39:47.928Z,989.57
2022-11-24T06:40:47.847Z,989.49
2022-11-24T06:41:47.824Z,989.53
2022-11-24T06:42:47.840Z,989.51
2022-11-24T06:43:47.858Z,989.56
2022-11-24T06:44:47.824Z,989.56
2022-11-24T06:45:47.901Z,989.57
2022-11-24T06:46:47.785Z,989.56
2022-11-24T06:47:47.765Z,989.56
2022-11-24T06:48:47.779Z,989.61
2022-11-24T06:49:47.764Z,989.64
2022-11-24T06:50:47.751Z,989.64
2022-11-24T06:51:47.724Z,989.63
2022-11-24T06:52:47.796Z,989.60
2022-11-24T06:53:47.717Z,989.63
2022-11-24T06:54:47.690Z,989.68
2022-11-24T06:55:47.684Z,989.73
2022-11-24T06:56:47.700Z,989.66
2022-11-24T06:57:47.662Z,989.70
2022-11-24T06:58:47.715Z,989.72
2022-11-24T06:59:47.620Z,989.73
2022-11-24T07:00:47.682Z,989.77
2022-11-24T07:01:47.635Z,989.78
2022-11-24T07:02:47.667Z,989.81
2022-11-24T07:03:47.639Z,989.81
2022-11-24T07:04:47.616Z,989.84
2022-11-24T07:05:47.571Z,989.87
2022-11-24T07:06:47.581Z,989.85
2022-11-24T07:07:47.626Z,989.86
2022-11-24T07:08:47.596Z,989.85
2022-11-24T07:09:47.524Z,989.89
2022-11-24T07:10:47.506Z,989.93
2022-11-24T07:11:47.514Z,989.91
2022-11-24T07:12:47.512Z,989.90
2022-11-24T07:13:47.533Z,989.92
2022-11-24T07:14:47.511Z,989.93
2022-11-24T07:15:47.512Z,989.93
2022-11-24T07:16:47.495Z,989.92
2022-11-24T07:17:47.475Z,989.94
2022-11-24T07:18:47.446Z,989.91
2022-11-24T07:19:47.452Z,989.97
2022-11-24T07:20:47.397Z,989.95
2022-11-24T07:21:47.387Z,990.01
2022-11-24T07:22:47.374Z,990.01
2022-11-24T07:23:47.378Z,990.04
2022-11-24T07:24:47.379Z,990.03
2022-11-24T07:25:47.335Z,990.04
2022-11-24T07:26:47.350Z,990.08
2022-11-24T07:27:47.310Z,990.07
2022-11-24T07:28:47.327Z,990.07
2022-11-24T07:29:47.336Z,990.15
2022-11-24T07:30:47.325Z,990.11
2022-11-24T07:31:47.294Z,990.10
2022-11-24T07:32:47.292Z,990.10
2022-11-24T07:33:47.316Z,990.14
2022-11-24T07:34:47.241Z,990.12
2022-11-24T07:35:47.263Z,990.15
2022-11-24T07:36:47.220Z,990.15
2022-11-24T07:37:47.213Z,990.19
2022-11-24T07:38:47.230Z,990.18
2022-11-24T07:39:47.206Z,990.20
2022-11-24T07:40:47.191Z,990.15
2022-11-24T07:41:47.161Z,990.16
2022-11-24T07:42:47.171Z,990.19
2022-11-24T07:43:47.148Z,990.21
2022-11-24T07:44:47.123Z,990.19
2022-11-24T07:45:47.186Z,990.18
2022-11-24T07:46:47.183Z,990.19
2022-11-24T07:47:47.118Z,990.19
2022-11-24T07:48:47.120Z,990.22
2022-11-24T07:49:47.105Z,990.22
2022-11-24T07:50:49.947Z,990.21
2022-11-24T07:51:48.057Z,990.26
2022-11-24T07:52:47.050Z,990.23
2022-11-24T07:53:47.027Z,990.28
2022-11-24T07:54:47.073Z,990.27
2022-11-24T07:55:47.013Z,990.29
2022-11-24T07:56:47.023Z,990.31
2022-11-24T07:57:47.011Z,990.30
2022-11-24T07:58:52.494Z,990.35
2022-11-24T07:59:48.022Z,990.30
2022-11-24T08:00:46.952Z,990.27
2022-11-24T08:01:47.013Z,990.29
2022-11-24T08:02:46.923Z,990.31
2022-11-24T08:03:47.140Z,990.34
2022-11-24T08:04:46.923Z,990.34
2022-11-24T08:06:15.926Z,990.35
2022-11-24T08:06:47.968Z,990.33
2022-11-24T08:07:47.037Z,990.38
2022-11-24T08:08:46.913Z,990.38
2022-11-24T08:09:46.871Z,990.36
2022-11-24T08:10:46.828Z,990.36
2022-11-24T08:11:46.838Z,990.36
2022-11-24T08:12:46.822Z,990.31
2022-11-24T08:13:46.823Z,990.34
2022-11-24T08:14:46.814Z,990.32
2022-11-24T08:15:46.811Z,990.34
2022-11-24T08:16:46.866Z,990.33
2022-11-24T08:17:46.764Z,990.34
2022-11-24T08:18:46.774Z,990.35
2022-11-24T08:19:46.738Z,990.39
2022-11-24T08:20:46.842Z,990.42
2022-11-24T08:21:46.765Z,990.43
2022-11-24T08:22:46.740Z,990.43
2022-11-24T08:23:46.708Z,990.42
2022-11-24T08:24:46.715Z,990.42
2022-11-24T08:25:46.719Z,990.40
2022-11-24T08:26:46.677Z,990.44
2022-11-24T08:27:46.694Z,990.46
2022-11-24T08:28:46.637Z,990.50
2022-11-24T08:29:46.650Z,990.53
2022-11-24T08:30:46.686Z,990.58
2022-11-24T08:31:46.717Z,990.57
2022-11-24T08:32:46.652Z,990.58
2022-11-24T08:33:46.584Z,990.58
2022-11-24T08:34:46.569Z,990.64
2022-11-24T08:35:46.552Z,990.61
2022-11-24T08:36:46.597Z,990.62
2022-11-24T08:37:46.587Z,990.64
2022-11-24T08:38:46.553Z,990.64
2022-11-24T08:39:46.509Z,990.61
2022-11-24T08:40:46.516Z,990.63
2022-11-24T08:41:46.603Z,990.68
2022-11-24T08:42:46.516Z,990.66
2022-11-24T08:43:46.492Z,990.68
2022-11-24T08:44:46.520Z,990.65
2022-11-24T08:45:46.527Z,990.71
2022-11-24T08:46:46.492Z,990.69
2022-11-24T08:47:46.429Z,990.73
2022-11-24T08:48:46.435Z,990.67
2022-11-24T08:49:46.429Z,990.68
2022-11-24T08:50:46.402Z,990.69
2022-11-24T08:51:46.417Z,990.71
2022-11-24T08:52:46.379Z,990.70
2022-11-24T08:53:46.369Z,990.69
2022-11-24T08:54:46.340Z,990.67
2022-11-24T08:55:46.376Z,990.72
2022-11-24T08:56:46.355Z,990.73
2022-11-24T08:57:46.326Z,990.76
2022-11-24T08:58:46.407Z,990.76
2022-11-24T08:59:46.289Z,990.76
2022-11-24T09:00:46.312Z,990.75
2022-11-24T09:01:46.352Z,990.76
2022-11-24T09:02:46.292Z,990.77
2022-11-24T09:03:50.393Z,990.75
2022-11-24T09:04:46.267Z,990.75
2022-11-24T09:05:53.432Z,990.78
2022-11-24T09:06:47.261Z,990.78
2022-11-24T09:07:46.311Z,990.79
2022-11-24T09:08:46.237Z,990.79
2022-11-24T09:09:46.300Z,990.81
2022-11-24T09:10:46.266Z,990.77
2022-11-24T09:11:46.182Z,990.77
2022-11-24T09:12:46.162Z,990.79
2022-11-24T09:13:46.183Z,990.81
2022-11-24T09:14:46.125Z,990.81
2022-11-24T09:15:46.193Z,990.84
2022-11-24T09:16:46.160Z,990.84
2022-11-24T09:17:46.105Z,990.85
2022-11-24T09:18:46.108Z,990.84
2022-11-24T09:19:46.066Z,990.87
2022-11-24T09:20:46.115Z,990.85
2022-11-24T09:21:46.056Z,990.90
2022-11-24T09:22:46.046Z,990.93
2022-11-24T09:23:46.026Z,990.86
2022-11-24T09:24:46.060Z,990.87
2022-11-24T09:25:46.062Z,990.98
2022-11-24T09:26:47.651Z,991.00
2022-11-24T09:27:46.009Z,990.99
2022-11-24T09:28:45.997Z,991.02
2022-11-24T09:29:46.011Z,991.03
2022-11-24T09:30:45.982Z,991.02
2022-11-24T09:31:45.977Z,991.09
2022-11-24T09:32:45.932Z,991.11
2022-11-24T09:33:45.911Z,991.11
2022-11-24T09:34:45.906Z,991.10
2022-11-24T09:35:45.897Z,991.12
2022-11-24T09:36:45.875Z,991.13
2022-11-24T09:37:45.882Z,991.14
2022-11-24T09:38:45.862Z,991.19
2022-11-24T09:39:45.859Z,991.21
2022-11-24T09:40:45.840Z,991.17
2022-11-24T09:41:45.875Z,991.24
2022-11-24T09:42:50.630Z,991.23
2022-11-24T09:43:45.837Z,991.31
2022-11-24T09:44:45.791Z,991.30
2022-11-24T09:46:46.806Z,991.31
2022-11-24T09:47:45.806Z,991.31
2022-11-24T09:48:45.749Z,991.32
2022-11-24T09:49:50.948Z,991.31
2022-11-24T09:50:46.768Z,991.34
2022-11-24T09:51:45.746Z,991.36
2022-11-24T09:52:45.721Z,991.37
2022-11-24T09:53:45.789Z,991.38
2022-11-24T09:54:45.686Z,991.39
2022-11-24T09:55:45.697Z,991.46
2022-11-24T09:56:45.686Z,991.42
2022-11-24T09:57:45.658Z,991.43
2022-11-24T09:58:45.683Z,991.49
2022-11-24T09:59:45.628Z,991.48
2022-11-24T10:00:45.649Z,991.48
2022-11-24T10:01:45.715Z,991.48
2022-11-24T10:02:45.622Z,991.51
2022-11-24T10:03:45.633Z,991.52
2022-11-24T10:04:45.707Z,991.53
2022-11-24T10:05:45.562Z,991.52
2022-11-24T10:06:45.542Z,991.53
2022-11-24T10:07:45.614Z,991.57
2022-11-24T10:08:45.557Z,991.54
2022-11-24T10:09:45.582Z,991.55
2022-11-24T10:10:45.517Z,991.54
2022-11-24T10:11:45.496Z,991.61
2022-11-24T10:12:45.469Z,991.57
2022-11-24T10:13:45.509Z,991.56
2022-11-24T10:14:45.457Z,991.61
2022-11-24T10:15:45.815Z,991.61
2022-11-24T10:16:45.449Z,991.65
2022-11-24T10:17:45.437Z,991.59
2022-11-24T10:18:45.425Z,991.60
2022-11-24T10:19:45.483Z,991.63
2022-11-24T10:20:45.418Z,991.60
2022-11-24T10:21:45.391Z,991.60
2022-11-24T10:22:45.390Z,991.60
2022-11-24T10:23:45.420Z,991.60
2022-11-24T10:24:45.447Z,991.57
2022-11-24T10:25:45.323Z,991.59
2022-11-24T10:26:45.376Z,991.59
2022-11-24T10:27:45.340Z,991.63
2022-11-24T10:28:45.347Z,991.59
2022-11-24T10:29:45.325Z,991.60
2022-11-24T10:30:45.464Z,991.62
2022-11-24T10:31:45.253Z,991.60
2022-11-24T10:32:45.265Z,991.66
2022-11-24T10:33:45.311Z,991.67
2022-11-24T10:34:45.222Z,991.71
2022-11-24T10:35:45.215Z,991.73
2022-11-24T10:36:45.234Z,991.71
2022-11-24T10:37:45.258Z,991.72
2022-11-24T10:38:45.185Z,991.75
2022-11-24T10:39:45.174Z,991.71
2022-11-24T10:41:00.478Z,991.70
2022-11-24T10:41:46.165Z,991.71
2022-11-24T10:42:45.155Z,991.71
2022-11-24T10:43:45.134Z,991.71
2022-11-24T10:44:45.126Z,991.69
2022-11-24T10:45:45.165Z,991.70
2022-11-24T10:46:45.264Z,991.71
2022-11-24T10:47:45.118Z,991.66
2022-11-24T10:48:45.115Z,991.70
2022-11-24T10:49:45.082Z,991.68
2022-11-24T10:50:45.084Z,991.71
2022-11-24T10:51:45.095Z,991.69
2022-11-24T10:52:45.040Z,991.68
2022-11-24T10:53:45.116Z,991.68
2022-11-24T10:54:45.013Z,991.71
2022-11-24T10:55:45.015Z,991.72
2022-11-24T10:56:45.013Z,991.72
2022-11-24T10:57:44.972Z,991.71
2022-11-24T10:58:45.071Z,991.72
2022-11-24T10:59:44.941Z,991.71
2022-11-24T11:00:44.937Z,991.72
2022-11-24T11:01:45.052Z,991.72
2022-11-24T11:02:44.960Z,991.75
2022-11-24T11:03:44.900Z,991.75
2022-11-24T11:04:44.972Z,991.73
2022-11-24T11:05:44.941Z,991.76
2022-11-24T11:06:44.974Z,991.73
2022-11-24T11:07:44.929Z,991.78
2022-11-24T11:08:45.040Z,991.76
2022-11-24T11:09:44.850Z,991.77
2022-11-24T11:10:44.851Z,991.78
2022-11-24T11:11:44.812Z,991.75
2022-11-24T11:12:45.338Z,991.76
2022-11-24T11:13:44.820Z,991.74
2022-11-24T11:14:44.794Z,991.70
2022-11-24T11:15:44.876Z,991.72
2022-11-24T11:16:45.108Z,991.70
2022-11-24T11:17:44.773Z,991.67
2022-11-24T11:18:44.738Z,991.70
2022-11-24T11:19:49.408Z,991.70
2022-11-24T11:20:45.775Z,991.73
2022-11-24T11:21:44.722Z,991.73
2022-11-24T11:22:44.694Z,991.74
2022-11-24T11:23:44.693Z,991.75
2022-11-24T11:24:44.716Z,991.81
2022-11-24T11:25:44.670Z,991.80
2022-11-24T11:26:44.639Z,991.79
2022-11-24T11:27:44.663Z,991.84
2022-11-24T11:28:44.638Z,991.85
2022-11-24T11:34:02.973Z,991.85
2022-11-24T11:34:45.591Z,991.86
2022-11-24T11:35:44.572Z,991.81
2022-11-24T11:36:44.530Z,991.82
2022-11-24T11:37:44.543Z,991.83
2022-11-24T11:38:44.511Z,991.85
2022-11-24T11:39:48.669Z,991.84
2022-11-24T11:40:44.498Z,991.82
2022-11-24T11:41:44.488Z,991.75
2022-11-24T11:43:45.497Z,991.75
2022-11-24T11:44:44.512Z,991.78
2022-11-24T11:45:44.574Z,991.74
2022-11-24T11:46:44.512Z,991.73
2022-11-24T11:47:44.474Z,991.74
2022-11-24T11:48:44.415Z,991.78
2022-11-24T11:49:44.427Z,991.77
2022-11-24T11:51:14.921Z,991.76
2022-11-24T11:51:45.552Z,991.78
2022-11-24T11:52:44.360Z,991.80
2022-11-24T11:53:44.370Z,991.75
2022-11-24T11:54:44.843Z,991.78
2022-11-24T11:55:49.741Z,991.80
2022-11-24T11:56:45.482Z,991.87
2022-11-24T11:57:44.303Z,991.86
2022-11-24T11:58:44.334Z,991.85
2022-11-24T11:59:44.270Z,991.85
2022-11-24T12:00:44.285Z,991.82
2022-11-24T12:01:44.298Z,991.83
2022-11-24T12:02:48.547Z,991.80
2022-11-24T12:03:45.381Z,991.81
2022-11-24T12:04:44.214Z,991.86
2022-11-24T12:05:44.237Z,991.91
2022-11-24T12:06:44.287Z,991.98
2022-11-24T12:07:44.301Z,991.92
2022-11-24T12:09:18.023Z,991.91
2022-11-24T12:09:45.157Z,991.92
2022-11-24T12:10:44.183Z,991.96
2022-11-24T12:11:44.175Z,991.93
2022-11-24T12:12:44.141Z,992.00
2022-11-24T12:13:44.227Z,991.96
2022-11-24T12:14:44.179Z,992.00
2022-11-24T12:15:44.204Z,991.99
2022-11-24T12:16:44.125Z,992.01
2022-11-24T12:17:44.097Z,992.00
2022-11-24T12:18:59.540Z,991.97
2022-11-24T12:19:45.050Z,992.03
2022-11-24T12:20:44.062Z,992.03
2022-11-24T12:21:44.074Z,991.99
2022-11-24T12:22:44.023Z,992.05
2022-11-24T12:23:44.079Z,992.03
2022-11-24T12:24:44.087Z,992.01
2022-11-24T12:25:44.001Z,992.01
2022-11-24T12:26:43.980Z,992.02
2022-11-24T12:27:44.019Z,991.98
2022-11-24T12:28:43.978Z,992.03
2022-11-24T12:29:43.998Z,992.04
2022-11-24T12:30:43.983Z,992.06
2022-11-24T12:31:44.089Z,992.09
2022-11-24T12:32:43.915Z,992.08
2022-11-24T12:33:49.163Z,992.11
2022-11-24T12:34:44.908Z,992.09